Taiki Maru — JI3464 — position and weather

sailwx.info

Track history (hours):
 
Tides and Currents Weather Stations Pressure Air Temp Water Temp Dewpoint Dewpoint Depression Visibility Wind Speed Wind Dir Waves Ship Positions

Taiki Maru

Last reported at 2014-Jul-24 12:32 UTC. Time now 2014-Jul-24 13:01 UTC.
Position N 35°34' E 139°53'.

Length 93 m; draft 4.9 m.

Type: Cargo ship. MMSI: 431300622.

Date/timePositionNaut miles runAvg speedWind from/ knotsBaromVisibWave heightAir tempDewpointWater temp
2014-Jul-24 12:32N 35°34' E 139°53'0 0.0
2014-Jul-24 11:33N 35°34' E 139°53'9 9.4
2014-Jul-24 10:34N 35°26' E 139°47'6 6.0
2014-Jul-24 09:33N 35°29' E 139°40'0 0.0
2014-Jul-24 08:33N 35°29' E 139°40'0 0.0
2014-Jul-24 07:33N 35°29' E 139°40'0 0.0
2014-Jul-24 06:33N 35°29' E 139°40'0 0.0
2014-Jul-24 05:33N 35°29' E 139°40'0 0.0
2014-Jul-24 04:33N 35°29' E 139°40'0 0.0
2014-Jul-24 03:33N 35°29' E 139°40'2 1.9
2014-Jul-24 02:33N 35°27' E 139°41'2 1.5
2014-Jul-24 01:33N 35°26' E 139°42'4 3.7
2014-Jul-24 00:34N 35°22' E 139°43'1212.3
2014-Jul-23 23:34N 35°10' E 139°47'1312.6
2014-Jul-23 22:33N 34°58' E 139°42'1010.0
2014-Jul-23 21:33N 34°51' E 139°50'1110.5
2014-Jul-23 20:33N 34°53' E 140°03'10 9.5
2014-Jul-23 19:33N 34°59' E 140°12'9 9.5
2014-Jul-23 18:33N 35°04' E 140°22'10 9.5
2014-Jul-23 17:33N 35°10' E 140°31'1411.7
2014-Jul-23 16:22N 35°19' E 140°44'1012.3
2014-Jul-23 15:33N 35°27' E 140°50'1312.6
2014-Jul-23 14:33N 35°38' E 140°59'1312.5
2014-Jul-23 13:33N 35°50' E 140°60'1413.4
2014-Jul-23 12:32N 36°04' E 140°58'1813.0
2014-Jul-23 11:11N 36°22' E 140°55'1013.2
2014-Jul-23 10:26N 36°31' E 140°55'  
2014-Jul-18 20:29N 36°06' E 140°58'1212.6
2014-Jul-18 19:33N 35°54' E 140°59'1312.9
2014-Jul-18 18:32N 35°41' E 140°60'1312.2
2014-Jul-18 17:30N 35°30' E 140°52'2814.0
2014-Jul-18 15:32N 35°09' E 140°30'1413.2
2014-Jul-18 14:29N 35°00' E 140°17'1212.5
2014-Jul-18 13:33N 34°54' E 140°05'1211.8
2014-Jul-18 12:31N 34°50' E 139°51'1212.0
2014-Jul-18 11:33N 34°59' E 139°42'1313.3
2014-Jul-18 10:33N 35°12' E 139°46'1212.3
2014-Jul-18 09:33N 35°24' E 139°42'5 5.2
2014-Jul-18 08:33N 35°29' E 139°40'0 0.0
2014-Jul-18 07:33N 35°29' E 139°40'0 0.0
2014-Jul-18 06:33N 35°29' E 139°40'0 0.0
2014-Jul-18 05:33N 35°29' E 139°40'0 0.0
2014-Jul-18 04:33N 35°29' E 139°40'0 0.0
2014-Jul-18 03:33N 35°29' E 139°40'0 0.5
2014-Jul-18 02:33N 35°28' E 139°40'3 2.6
2014-Jul-18 01:28N 35°26' E 139°42'0 0.0
2014-Jul-18 00:31N 35°26' E 139°42'0 0.0
2014-Jul-17 23:33N 35°26' E 139°42'0 0.0
2014-Jul-17 22:33N 35°26' E 139°42'0 0.0
2014-Jul-17 21:33N 35°26' E 139°42'4 4.3
2014-Jul-17 20:33N 35°22' E 139°43'1211.7
2014-Jul-17 19:33N 35°10' E 139°46'1111.2
2014-Jul-17 18:33N 35°01' E 139°39'1413.2
2014-Jul-17 17:29N 34°53' E 139°25'  
Track history (hours):
 
Tides and Currents Weather Stations Pressure Air Temp Water Temp Dewpoint Dewpoint Depression Visibility Wind Speed Wind Dir Waves Ship Positions

Taiki Maru

Last reported at 2014-Jul-24 12:32 UTC. Time now 2014-Jul-24 13:01 UTC.
Position N 35°34' E 139°53'.

Length 93 m; draft 4.9 m.

Type: Cargo ship. MMSI: 431300622.

Date/timePositionNaut miles runAvg speedWind from/ knotsBaromVisibWave heightAir tempDewpointWater temp
2014-Jul-24 12:32N 35°34' E 139°53'0 0.0
2014-Jul-24 11:33N 35°34' E 139°53'9 9.4
2014-Jul-24 10:34N 35°26' E 139°47'6 6.0
2014-Jul-24 09:33N 35°29' E 139°40'0 0.0
2014-Jul-24 08:33N 35°29' E 139°40'0 0.0
2014-Jul-24 07:33N 35°29' E 139°40'0 0.0
2014-Jul-24 06:33N 35°29' E 139°40'0 0.0
2014-Jul-24 05:33N 35°29' E 139°40'0 0.0
2014-Jul-24 04:33N 35°29' E 139°40'0 0.0
2014-Jul-24 03:33N 35°29' E 139°40'2 1.9
2014-Jul-24 02:33N 35°27' E 139°41'2 1.5
2014-Jul-24 01:33N 35°26' E 139°42'4 3.7
2014-Jul-24 00:34N 35°22' E 139°43'1212.3
2014-Jul-23 23:34N 35°10' E 139°47'1312.6
2014-Jul-23 22:33N 34°58' E 139°42'1010.0
2014-Jul-23 21:33N 34°51' E 139°50'1110.5
2014-Jul-23 20:33N 34°53' E 140°03'10 9.5
2014-Jul-23 19:33N 34°59' E 140°12'9 9.5
2014-Jul-23 18:33N 35°04' E 140°22'10 9.5
2014-Jul-23 17:33N 35°10' E 140°31'1411.7
2014-Jul-23 16:22N 35°19' E 140°44'1012.3
2014-Jul-23 15:33N 35°27' E 140°50'1312.6
2014-Jul-23 14:33N 35°38' E 140°59'1312.5
2014-Jul-23 13:33N 35°50' E 140°60'1413.4
2014-Jul-23 12:32N 36°04' E 140°58'1813.0
2014-Jul-23 11:11N 36°22' E 140°55'1013.2
2014-Jul-23 10:26N 36°31' E 140°55'  
2014-Jul-18 20:29N 36°06' E 140°58'1212.6
2014-Jul-18 19:33N 35°54' E 140°59'1312.9
2014-Jul-18 18:32N 35°41' E 140°60'1312.2
2014-Jul-18 17:30N 35°30' E 140°52'2814.0
2014-Jul-18 15:32N 35°09' E 140°30'1413.2
2014-Jul-18 14:29N 35°00' E 140°17'1212.5
2014-Jul-18 13:33N 34°54' E 140°05'1211.8
2014-Jul-18 12:31N 34°50' E 139°51'1212.0
2014-Jul-18 11:33N 34°59' E 139°42'1313.3
2014-Jul-18 10:33N 35°12' E 139°46'1212.3
2014-Jul-18 09:33N 35°24' E 139°42'5 5.2
2014-Jul-18 08:33N 35°29' E 139°40'0 0.0
2014-Jul-18 07:33N 35°29' E 139°40'0 0.0
2014-Jul-18 06:33N 35°29' E 139°40'0 0.0
2014-Jul-18 05:33N 35°29' E 139°40'0 0.0
2014-Jul-18 04:33N 35°29' E 139°40'0 0.0
2014-Jul-18 03:33N 35°29' E 139°40'0 0.5
2014-Jul-18 02:33N 35°28' E 139°40'3 2.6
2014-Jul-18 01:28N 35°26' E 139°42'0 0.0
2014-Jul-18 00:31N 35°26' E 139°42'0 0.0
2014-Jul-17 23:33N 35°26' E 139°42'0 0.0
2014-Jul-17 22:33N 35°26' E 139°42'0 0.0
2014-Jul-17 21:33N 35°26' E 139°42'4 4.3
2014-Jul-17 20:33N 35°22' E 139°43'1211.7
2014-Jul-17 19:33N 35°10' E 139°46'1111.2
2014-Jul-17 18:33N 35°01' E 139°39'1413.2
2014-Jul-17 17:29N 34°53' E 139°25'  

Dump ship's entire track history